createdAt,value
2022-09-26T00:01:31.759Z,96515.22
2022-09-26T00:11:35.001Z,96503.81
2022-09-26T00:21:37.913Z,96503.38
2022-09-26T00:31:43.533Z,96493.97
2022-09-26T00:41:46.081Z,96472.63
2022-09-26T00:51:57.081Z,96452.84
2022-09-26T01:02:00.175Z,96456.47
2022-09-26T01:12:04.735Z,96457.06
2022-09-26T01:22:13.044Z,96468.53
2022-09-26T01:32:43.039Z,96446.66
2022-09-26T01:43:10.146Z,96439.75
2022-09-26T01:53:25.780Z,96439.78
2022-09-26T02:03:32.278Z,96428.47
2022-09-26T02:13:46.295Z,96414.53
2022-09-26T02:23:49.868Z,96404.88
2022-09-26T02:33:53.714Z,96394.69
2022-09-26T02:44:33.160Z,96391.50
2022-09-26T02:54:47.500Z,96391.09
2022-09-26T03:04:58.534Z,96382.94
2022-09-26T03:15:04.976Z,96380.22
2022-09-26T03:25:09.334Z,96380.94
2022-09-26T03:35:11.701Z,96364.25
2022-09-26T03:45:14.192Z,96348.44
2022-09-26T03:55:16.656Z,96347.44
2022-09-26T04:05:19.177Z,96338.97
2022-09-26T04:15:21.664Z,96338.69
2022-09-26T04:25:23.958Z,96342.38
2022-09-26T04:35:27.477Z,96334.34
2022-09-26T04:45:29.804Z,96339.97
2022-09-26T04:55:32.114Z,96335.16
2022-09-26T05:05:34.361Z,96341.38
2022-09-26T05:15:40.107Z,96337.25
2022-09-26T05:26:00.901Z,96333.84
2022-09-26T05:36:03.889Z,96327.78
2022-09-26T05:46:11.865Z,96334.47
2022-09-26T05:56:18.703Z,96341.81
2022-09-26T06:06:21.872Z,96347.03
2022-09-26T06:16:24.329Z,96332.53
2022-09-26T06:26:29.174Z,96333.88
2022-09-26T06:36:31.771Z,96338.31
2022-09-26T06:46:34.143Z,96347.56
2022-09-26T06:56:36.468Z,96345.72
2022-09-26T07:06:39.032Z,96335.41
2022-09-26T07:16:42.424Z,96342.44
2022-09-26T07:26:45.178Z,96344.66
2022-09-26T07:36:47.696Z,96344.41
2022-09-26T07:47:08.915Z,96354.03
2022-09-26T07:57:11.199Z,96356.22
2022-09-26T08:07:13.499Z,96353.13
2022-09-26T08:17:17.157Z,96356.66
2022-09-26T08:27:20.941Z,96374.59
2022-09-26T08:37:26.563Z,96366.03
2022-09-26T08:47:43.038Z,96371.16
2022-09-26T08:57:50.592Z,96374.69
2022-09-26T09:07:56.894Z,96376.56
2022-09-26T09:18:19.703Z,96372.13
2022-09-26T09:28:28.104Z,96365.94
2022-09-26T09:38:33.506Z,96367.38
2022-09-26T09:48:35.869Z,96368.88
2022-09-26T09:58:41.076Z,96370.03
2022-09-26T10:08:43.418Z,96348.50
2022-09-26T10:19:04.633Z,96354.59
2022-09-26T10:29:23.019Z,96353.38
2022-09-26T10:39:49.248Z,96346.47
2022-09-26T10:49:59.319Z,96343.06
2022-09-26T11:00:06.753Z,96326.91
2022-09-26T11:10:17.461Z,96330.22
2022-09-26T11:20:55.336Z,96319.38
2022-09-26T11:31:06.534Z,96308.63
2022-09-26T11:41:38.535Z,96282.34
2022-09-26T11:51:50.996Z,96290.94
2022-09-26T12:02:23.927Z,96291.03
2022-09-26T12:13:01.397Z,96278.78
2022-09-26T12:23:17.184Z,96281.44
2022-09-26T12:33:46.504Z,96272.00
2022-09-26T12:44:22.825Z,96269.13
2022-09-26T12:54:40.670Z,96253.16
2022-09-26T13:04:43.354Z,96244.28
2022-09-26T13:15:02.349Z,96230.09
2022-09-26T13:25:25.225Z,96219.19
2022-09-26T13:35:29.454Z,96222.44
2022-09-26T13:45:40.662Z,96203.66
2022-09-26T13:55:43.677Z,96189.13
2022-09-26T14:05:51.572Z,96172.00
2022-09-26T14:16:03.344Z,96161.84
2022-09-26T14:26:28.515Z,96155.19
2022-09-26T14:36:35.246Z,96135.63
2022-09-26T14:46:39.012Z,96137.13
2022-09-26T14:56:46.673Z,96143.09
2022-09-26T15:06:56.669Z,96124.59
2022-09-26T15:17:01.811Z,96119.84
2022-09-26T15:27:30.187Z,96105.31
2022-09-26T15:37:35.234Z,96101.16
2022-09-26T15:47:42.317Z,96105.25
2022-09-26T15:57:48.051Z,96090.03
2022-09-26T16:07:53.044Z,96097.91
2022-09-26T16:17:57.882Z,96096.22
2022-09-26T16:28:08.996Z,96095.09
2022-09-26T16:38:29.627Z,96097.72
2022-09-26T16:48:37.873Z,96098.56
2022-09-26T16:58:53.924Z,96087.13
2022-09-26T17:09:01.655Z,96083.72
2022-09-26T17:19:04.012Z,96078.09
2022-09-26T17:29:07.380Z,96073.63
2022-09-26T17:39:13.602Z,96057.66
2022-09-26T17:49:32.488Z,96069.91
2022-09-26T17:59:35.278Z,96067.38
2022-09-26T18:09:38.335Z,96068.91
2022-09-26T18:19:40.700Z,96074.72
2022-09-26T18:29:47.480Z,96072.38
2022-09-26T18:39:54.400Z,96081.72
2022-09-26T18:49:57.510Z,96067.03
2022-09-26T19:00:00.433Z,96063.97
2022-09-26T19:10:03.026Z,96062.31
2022-09-26T19:20:05.710Z,96060.03
2022-09-26T19:30:17.849Z,96043.78
2022-09-26T19:40:21.731Z,96027.53
2022-09-26T19:50:28.806Z,96014.34
2022-09-26T20:00:32.093Z,96018.53
2022-09-26T20:10:34.404Z,96010.91
2022-09-26T20:20:49.678Z,96004.13
2022-09-26T20:40:22.903Z,95971.63
2022-09-26T20:50:34.024Z,95968.16
2022-09-26T21:00:39.032Z,95965.81
2022-09-26T21:10:41.450Z,95965.22
2022-09-26T21:20:45.721Z,95950.06
2022-09-26T21:30:48.762Z,95945.59
2022-09-26T21:40:56.245Z,95939.56
2022-09-26T21:51:00.325Z,95942.28
2022-09-26T22:01:02.719Z,95934.16
2022-09-26T22:11:06.441Z,95918.56
2022-09-26T22:21:10.841Z,95907.41
2022-09-26T22:31:13.339Z,95876.59
2022-09-26T22:41:16.058Z,95862.78
2022-09-26T22:51:18.627Z,95835.38
2022-09-26T23:01:24.066Z,95832.97
2022-09-26T23:11:26.692Z,95825.38
2022-09-26T23:21:29.034Z,95819.41
2022-09-26T23:31:31.397Z,95800.50
2022-09-26T23:41:33.697Z,95786.84
2022-09-26T23:51:36.005Z,95771.75
